createdAt,value
2018-06-24T00:00:51.596Z,96105.7
2018-06-24T00:01:54.032Z,96103.4
2018-06-24T00:02:56.194Z,96106.1
2018-06-24T00:03:58.087Z,96106.4
2018-06-24T00:05:00.522Z,96102.8
2018-06-24T00:06:02.979Z,96105.9
2018-06-24T00:07:05.422Z,96104.6
2018-06-24T00:08:07.857Z,96105.5
2018-06-24T00:09:10.296Z,96101.9
2018-06-24T00:10:12.738Z,96100.5
2018-06-24T00:11:15.173Z,96099.3
2018-06-24T00:12:17.621Z,96093.6
2018-06-24T00:13:19.769Z,96095.8
2018-06-24T00:14:21.456Z,96093.1
2018-06-24T00:15:23.930Z,96093.5
2018-06-24T00:16:26.395Z,96094.5
2018-06-24T00:17:28.531Z,96087.9
2018-06-24T00:18:30.970Z,96092.7
2018-06-24T00:19:33.409Z,96092.6
2018-06-24T00:20:35.850Z,96092
2018-06-24T00:21:38.284Z,96089.6
2018-06-24T00:22:40.762Z,96086.9
2018-06-24T00:23:43.197Z,96084.7
2018-06-24T00:24:45.357Z,96088.9
2018-06-24T00:25:47.791Z,96090.8
2018-06-24T00:26:49.950Z,96091.8
2018-06-24T00:27:52.086Z,96088.2
2018-06-24T00:28:54.266Z,96087
2018-06-24T00:29:56.694Z,96082.2
2018-06-24T00:30:59.127Z,96084.7
2018-06-24T00:32:01.570Z,96082.8
2018-06-24T00:33:04.010Z,96083
2018-06-24T00:34:06.207Z,96078.4
2018-06-24T00:35:08.639Z,96078.5
2018-06-24T00:36:11.073Z,96080.3
2018-06-24T00:37:13.812Z,96077.8
2018-06-24T00:38:16.119Z,96076
2018-06-24T00:39:18.551Z,96077.6
2018-06-24T00:40:20.984Z,96073.3
2018-06-24T00:41:23.418Z,96073.2
2018-06-24T00:42:25.853Z,96070.4
2018-06-24T00:43:28.289Z,96069.7
2018-06-24T00:44:30.740Z,96072
2018-06-24T00:45:33.179Z,96070.1
2018-06-24T00:46:35.615Z,96066.4
2018-06-24T00:47:38.044Z,96068
2018-06-24T00:48:40.204Z,96064.3
2018-06-24T00:49:42.360Z,96062.1
2018-06-24T00:50:44.797Z,96063.6
2018-06-24T00:51:46.960Z,96065.1
2018-06-24T00:52:49.397Z,96063.8
2018-06-24T00:53:51.839Z,96068.5
2018-06-24T00:54:54.282Z,96064.3
2018-06-24T00:55:56.731Z,96062.2
2018-06-24T00:56:59.168Z,96059.5
2018-06-24T00:58:01.612Z,96059.5
2018-06-24T00:59:04.041Z,96056.8
2018-06-24T01:00:06.468Z,96058.6
2018-06-24T01:01:08.903Z,96059.2
2018-06-24T01:02:11.338Z,96058
2018-06-24T01:03:13.495Z,96055.7
2018-06-24T01:04:15.938Z,96052.1
2018-06-24T01:05:18.096Z,96056.1
2018-06-24T01:06:20.534Z,96051.2
2018-06-24T01:07:23.009Z,96051.2
2018-06-24T01:08:25.449Z,96050.7
2018-06-24T01:09:27.892Z,96054
2018-06-24T01:10:30.342Z,96052.9
2018-06-24T01:11:32.773Z,96049.7
2018-06-24T01:12:35.219Z,96048.4
2018-06-24T01:13:37.389Z,96049.9
2018-06-24T01:14:39.830Z,96046.2
2018-06-24T01:15:42.258Z,96053
2018-06-24T01:16:44.710Z,96048.3
2018-06-24T01:17:47.141Z,96051.3
2018-06-24T01:18:49.565Z,96046
2018-06-24T01:19:51.999Z,96046.6
2018-06-24T01:20:54.439Z,96046.6
2018-06-24T01:21:56.609Z,96042.9
2018-06-24T01:22:58.761Z,96040.8
2018-06-24T01:24:01.193Z,96043.7
2018-06-24T01:25:03.628Z,96039.7
2018-06-24T01:26:06.058Z,96042.8
2018-06-24T01:27:08.496Z,96043.1
2018-06-24T01:28:10.930Z,96043.6
2018-06-24T01:29:13.379Z,96042.6
2018-06-24T01:30:15.810Z,96043.3
2018-06-24T01:31:18.243Z,96043
2018-06-24T01:32:20.689Z,96041.1
2018-06-24T01:33:23.138Z,96039.2
2018-06-24T01:34:25.590Z,96039.1
2018-06-24T01:35:28.028Z,96037.2
2018-06-24T01:36:30.477Z,96037.9
2018-06-24T01:37:32.900Z,96038.6
2018-06-24T01:38:35.348Z,96040.1
2018-06-24T01:39:37.780Z,96036.9
2018-06-24T01:40:40.218Z,96038
2018-06-24T01:41:42.379Z,96033.9
2018-06-24T01:42:44.838Z,96033.6
2018-06-24T01:43:47.286Z,96030.3
2018-06-24T01:44:49.718Z,96030.8
2018-06-24T01:45:52.202Z,96031
2018-06-24T01:46:54.639Z,96029.3
2018-06-24T01:47:57.081Z,96032.5
2018-06-24T01:48:59.519Z,96032.4
2018-06-24T01:50:01.959Z,96030.7
2018-06-24T01:51:04.396Z,96030
2018-06-24T01:52:06.839Z,96027.4
2018-06-24T01:53:09.279Z,96028
2018-06-24T01:54:11.714Z,96025.5
2018-06-24T01:55:14.147Z,96025.8
2018-06-24T01:56:16.593Z,96023.7
2018-06-24T01:57:19.027Z,96023.1
2018-06-24T01:58:21.464Z,96023.9
2018-06-24T01:59:23.893Z,96019.8
2018-06-24T02:00:26.331Z,96019.2
2018-06-24T02:01:28.756Z,96019
2018-06-24T02:02:31.222Z,96017.6
2018-06-24T02:03:33.650Z,96013.4
2018-06-24T02:04:36.085Z,96018
2018-06-24T02:05:38.525Z,96012.1
2018-06-24T02:06:40.675Z,96010.2
2018-06-24T02:07:42.854Z,96013.6
2018-06-24T02:08:45.286Z,96009.7
2018-06-24T02:09:47.451Z,96013
2018-06-24T02:10:49.615Z,96008.3
2018-06-24T02:11:52.059Z,96005.7
2018-06-24T02:12:54.229Z,96007.8
2018-06-24T02:13:56.665Z,96004
2018-06-24T02:14:59.109Z,96006.3
2018-06-24T02:16:01.549Z,96006.3
2018-06-24T02:17:03.987Z,96006.3
2018-06-24T02:18:06.433Z,96003.7
2018-06-24T02:19:08.866Z,96002.1
2018-06-24T02:20:11.298Z,96003.9
2018-06-24T02:21:13.751Z,96001.8
2018-06-24T02:22:16.182Z,95997.1
2018-06-24T02:23:18.608Z,96000.2
2018-06-24T02:24:21.041Z,95995.9
2018-06-24T02:25:23.466Z,95995.5
2018-06-24T02:26:25.910Z,95994.6
2018-06-24T02:27:28.345Z,95997.4
2018-06-24T02:28:30.516Z,95994.9
2018-06-24T02:29:32.946Z,95992.4
2018-06-24T02:30:35.100Z,95991.8
2018-06-24T02:31:37.541Z,95993.9
2018-06-24T02:32:39.678Z,95992.6
2018-06-24T02:33:41.847Z,95994.9
2018-06-24T02:34:44.293Z,95994.4
2018-06-24T02:35:46.729Z,95996.7
2018-06-24T02:36:49.160Z,95993.6
2018-06-24T02:37:51.303Z,95991.6
2018-06-24T02:38:53.746Z,95995.2
2018-06-24T02:39:56.180Z,95991
2018-06-24T02:40:58.610Z,95989.8
2018-06-24T02:42:01.051Z,95984.4
2018-06-24T02:43:03.497Z,95989.2
2018-06-24T02:44:05.972Z,95984.7
2018-06-24T02:45:08.406Z,95987.2
2018-06-24T02:46:10.591Z,95985.2
2018-06-24T02:47:12.723Z,95985.9
2018-06-24T02:48:15.161Z,95986.8
2018-06-24T02:49:17.593Z,95982.7
2018-06-24T02:50:20.035Z,95985.5
2018-06-24T02:51:22.473Z,95987.2
2018-06-24T02:52:24.913Z,95981.8
2018-06-24T02:53:27.079Z,95983.6
2018-06-24T02:54:29.579Z,95981.5
2018-06-24T02:55:32.030Z,95980.3
2018-06-24T02:56:34.212Z,95984.8
2018-06-24T02:57:36.639Z,95977.2
2018-06-24T02:58:39.073Z,95979.4
2018-06-24T02:59:41.520Z,95977.4
2018-06-24T03:00:43.965Z,95978.4
2018-06-24T03:01:46.418Z,95977.2
2018-06-24T03:02:48.576Z,95980.1
2018-06-24T03:03:50.738Z,95980.7
2018-06-24T03:04:53.167Z,95981.6
2018-06-24T03:05:55.607Z,95979.8
2018-06-24T03:06:58.048Z,95984.3
2018-06-24T03:08:00.494Z,95982.5
2018-06-24T03:09:02.929Z,95974
2018-06-24T03:10:05.364Z,95980.8
2018-06-24T03:11:08.332Z,95973.4
2018-06-24T03:12:10.775Z,95978.3
2018-06-24T03:13:13.210Z,95977.3
2018-06-24T03:14:15.661Z,95979.3
2018-06-24T03:15:18.149Z,95976.9
2018-06-24T03:16:20.032Z,95976
2018-06-24T03:17:22.469Z,95976.4
2018-06-24T03:18:24.910Z,95980.1
2018-06-24T03:19:27.094Z,95979.7
2018-06-24T03:20:29.526Z,95982
2018-06-24T03:21:31.970Z,95981.9
2018-06-24T03:22:34.406Z,95978
2018-06-24T03:23:36.284Z,95978
2018-06-24T03:24:38.718Z,95979.7
2018-06-24T03:25:41.158Z,95977.9
2018-06-24T03:26:43.599Z,95978.2
2018-06-24T03:27:46.041Z,95977.3
2018-06-24T03:28:48.480Z,95979.3
2018-06-24T03:29:50.921Z,95978.7
2018-06-24T03:30:53.350Z,95978.3
2018-06-24T03:31:55.511Z,95981
2018-06-24T03:32:57.960Z,95979.5
2018-06-24T03:34:00.409Z,95985.1
2018-06-24T03:35:02.307Z,95981
2018-06-24T03:36:04.744Z,95981.5
2018-06-24T03:37:07.187Z,95979.6
2018-06-24T03:38:09.627Z,95983
2018-06-24T03:39:12.060Z,95984.7
2018-06-24T03:40:14.513Z,95984.8
2018-06-24T03:41:16.947Z,95986
2018-06-24T03:42:19.390Z,95984.3
2018-06-24T03:43:21.832Z,95986.1
2018-06-24T03:44:24.268Z,95982.2
2018-06-24T03:45:26.715Z,95978.9
2018-06-24T03:46:29.177Z,95981.2
2018-06-24T03:47:31.063Z,95981.8
2018-06-24T03:48:33.508Z,95982.2
2018-06-24T03:49:35.937Z,95979.5
2018-06-24T03:50:38.367Z,95978.1
2018-06-24T03:51:40.541Z,95979.8
2018-06-24T03:52:42.972Z,95977.5
2018-06-24T03:53:45.116Z,95975.1
2018-06-24T03:54:47.545Z,95974.1
2018-06-24T03:55:49.976Z,95976.3
2018-06-24T03:56:52.421Z,95975.8
2018-06-24T03:57:54.859Z,95978.5
2018-06-24T03:58:57.299Z,95978.5
2018-06-24T03:59:59.729Z,95975
2018-06-24T04:01:02.159Z,95972
2018-06-24T04:02:04.600Z,95971.9
2018-06-24T04:03:06.757Z,95975.4
2018-06-24T04:04:09.183Z,95972.4
2018-06-24T04:05:11.317Z,95976.7
2018-06-24T04:06:13.748Z,95974.4
2018-06-24T04:07:15.908Z,95977.9
2018-06-24T04:08:18.355Z,95979
2018-06-24T04:09:20.782Z,95979.7
2018-06-24T04:10:23.239Z,95977.4
2018-06-24T04:11:25.685Z,95978.9
2018-06-24T04:12:28.117Z,95981.6
2018-06-24T04:13:30.549Z,95975.6
2018-06-24T04:14:32.709Z,95977
2018-06-24T04:15:34.878Z,95982.6
2018-06-24T04:16:37.304Z,95979.8
2018-06-24T04:17:39.738Z,95975.9
2018-06-24T04:18:42.189Z,95975.3
2018-06-24T04:19:44.654Z,95975.5
2018-06-24T04:20:46.823Z,95975.3
2018-06-24T04:21:49.254Z,95980
2018-06-24T04:22:51.704Z,95981.2
2018-06-24T04:23:54.138Z,95984.2
2018-06-24T04:24:56.567Z,95981.5
2018-06-24T04:25:58.458Z,95983.5
2018-06-24T04:27:00.891Z,95984.5
2018-06-24T04:28:03.052Z,95986.6
2018-06-24T04:29:05.497Z,95988.2
2018-06-24T04:30:07.942Z,95988.4
2018-06-24T04:31:10.379Z,95990.9
2018-06-24T04:32:12.810Z,95992.7
2018-06-24T04:33:14.728Z,95993.4
2018-06-24T04:34:17.164Z,95990.6
2018-06-24T04:35:19.595Z,95994.9
2018-06-24T04:36:21.779Z,95996
2018-06-24T04:37:24.220Z,95992.6
2018-06-24T04:38:26.653Z,95993.6
2018-06-24T04:39:29.087Z,95992.4
2018-06-24T04:40:31.535Z,95990.9
2018-06-24T04:41:33.439Z,95994.4
2018-06-24T04:42:35.616Z,95985.8
2018-06-24T04:43:37.776Z,95983.7
2018-06-24T04:44:40.202Z,95987.7
2018-06-24T04:45:42.380Z,95986.6
2018-06-24T04:46:44.805Z,95987.3
2018-06-24T04:47:46.976Z,95986.8
2018-06-24T04:48:49.122Z,95986.2
2018-06-24T04:49:51.553Z,95984
2018-06-24T04:50:54.182Z,95986
2018-06-24T04:51:56.631Z,95988
2018-06-24T04:52:58.779Z,95987.8
2018-06-24T04:54:01.212Z,95988.9
2018-06-24T04:55:03.680Z,95987.6
2018-06-24T04:56:06.114Z,95987
2018-06-24T04:57:08.556Z,95989.5
2018-06-24T04:58:10.987Z,95992.1
2018-06-24T04:59:13.427Z,95989.5
2018-06-24T05:00:15.880Z,95990.6
2018-06-24T05:01:18.309Z,95993.9
2018-06-24T05:02:20.500Z,95990.6
2018-06-24T05:03:22.925Z,95993.8
2018-06-24T05:04:25.399Z,95993.4
2018-06-24T05:05:27.839Z,95990.8
2018-06-24T05:06:30.529Z,95992.7
2018-06-24T05:07:33.109Z,95990.6
2018-06-24T05:08:35.549Z,95990.5
2018-06-24T05:09:37.709Z,95991.8
2018-06-24T05:10:40.144Z,95995.3
2018-06-24T05:11:42.577Z,95994.4
2018-06-24T05:12:45.020Z,95995.3
2018-06-24T05:13:47.187Z,95995.2
2018-06-24T05:14:49.350Z,95995.5
2018-06-24T05:15:51.804Z,95994.6
2018-06-24T05:16:54.238Z,95996
2018-06-24T05:17:56.675Z,95999.5
2018-06-24T05:18:59.115Z,95994.4
2018-06-24T05:20:01.570Z,96000
2018-06-24T05:21:04.000Z,96002
2018-06-24T05:22:06.439Z,95998.9
2018-06-24T05:23:08.878Z,96003.8
2018-06-24T05:24:11.329Z,96003.4
2018-06-24T05:25:13.773Z,96003.5
2018-06-24T05:26:16.210Z,96003
2018-06-24T05:27:18.659Z,95998.4
2018-06-24T05:28:21.107Z,95997.1
2018-06-24T05:29:23.280Z,95995.4
2018-06-24T05:30:25.720Z,95994.9
2018-06-24T05:31:27.896Z,95993.1
2018-06-24T05:32:30.353Z,95993.6
2018-06-24T05:33:32.793Z,95994.6
2018-06-24T05:34:35.229Z,95991
2018-06-24T05:35:37.385Z,95988
2018-06-24T05:36:39.816Z,95988.3
2018-06-24T05:37:42.313Z,95991
2018-06-24T05:38:44.749Z,95993
2018-06-24T05:39:47.189Z,95986.7
2018-06-24T05:40:49.329Z,95987.4
2018-06-24T05:41:51.799Z,95987.9
2018-06-24T05:42:54.232Z,95987.3
2018-06-24T05:43:56.396Z,95988.2
2018-06-24T05:44:58.556Z,95985
2018-06-24T05:46:00.998Z,95985.7
2018-06-24T05:47:03.426Z,95993.5
2018-06-24T05:48:05.869Z,95987.1
2018-06-24T05:49:08.325Z,95988.3
2018-06-24T05:50:10.771Z,95987.4
2018-06-24T05:51:12.911Z,95988.3
2018-06-24T05:52:15.369Z,95990.4
2018-06-24T05:53:17.817Z,95991.9
2018-06-24T05:54:20.513Z,95989
2018-06-24T05:55:22.407Z,95987.1
2018-06-24T05:56:39.507Z,95987.4
2018-06-24T05:57:41.945Z,95990.8
2018-06-24T05:58:44.402Z,95988.8
2018-06-24T05:59:46.846Z,95986.5
2018-06-24T06:00:49.280Z,95988.3
2018-06-24T06:01:51.476Z,95986
2018-06-24T06:02:53.732Z,95987.8
2018-06-24T06:03:56.179Z,95985
2018-06-24T06:04:58.626Z,95984.3
2018-06-24T06:06:00.798Z,95985.7
2018-06-24T06:07:03.230Z,95983.2
2018-06-24T06:08:05.663Z,95985.3
2018-06-24T06:09:08.113Z,95988.5
2018-06-24T06:10:11.030Z,95988.9
2018-06-24T06:11:13.588Z,95985.5
2018-06-24T06:12:16.026Z,95984.4
2018-06-24T06:13:18.460Z,95986.5
2018-06-24T06:14:20.922Z,95989.4
2018-06-24T06:15:23.080Z,95988.3
2018-06-24T06:16:25.525Z,95989.3
2018-06-24T06:17:27.951Z,95987.3
2018-06-24T06:18:30.380Z,95990.1
2018-06-24T06:19:32.531Z,95988.9
2018-06-24T06:20:34.968Z,95987.9
2018-06-24T06:21:37.415Z,95989.4
2018-06-24T06:22:39.895Z,95988.1
2018-06-24T06:23:42.323Z,95986.3
2018-06-24T06:24:44.752Z,95987.2
2018-06-24T06:25:47.186Z,95987.8
2018-06-24T06:26:49.350Z,95982.4
2018-06-24T06:27:51.797Z,95984
2018-06-24T06:28:54.227Z,95985.3
2018-06-24T06:29:56.675Z,95980.2
2018-06-24T06:30:59.121Z,95982.2
2018-06-24T06:32:01.546Z,95983.3
2018-06-24T06:33:03.995Z,95984.4
2018-06-24T06:34:06.430Z,95984.5
2018-06-24T06:35:08.584Z,95982
2018-06-24T06:36:10.716Z,95986
2018-06-24T06:37:13.163Z,95986.3
2018-06-24T06:38:15.596Z,95988.8
2018-06-24T06:39:18.028Z,95985.9
2018-06-24T06:40:20.189Z,95984.6
2018-06-24T06:41:22.640Z,95987.9
2018-06-24T06:42:25.073Z,95982.4
2018-06-24T06:43:26.943Z,95983.5
2018-06-24T06:44:29.381Z,95985.3
2018-06-24T06:45:32.742Z,95982.7
2018-06-24T06:46:35.466Z,95982.7
2018-06-24T06:47:37.904Z,95982.5
2018-06-24T06:48:40.336Z,95988.1
2018-06-24T06:49:42.777Z,95984.6
2018-06-24T06:50:44.938Z,95983.2
2018-06-24T06:51:47.372Z,95984
2018-06-24T06:52:49.538Z,95985.7
2018-06-24T06:53:51.708Z,95985.2
2018-06-24T06:54:54.156Z,95982.1
2018-06-24T06:55:56.581Z,95985.8
2018-06-24T06:56:59.013Z,95982.4
2018-06-24T06:58:01.480Z,95980.2
2018-06-24T06:59:03.908Z,95981.5
2018-06-24T07:00:06.483Z,95985.2
2018-06-24T07:01:08.948Z,95981.4
2018-06-24T07:02:11.395Z,95983.2
2018-06-24T07:03:13.837Z,95980.6
2018-06-24T07:04:16.263Z,95984.2
2018-06-24T07:05:18.421Z,95981.4
2018-06-24T07:06:20.868Z,95983.7
2018-06-24T07:07:23.309Z,95980.2
2018-06-24T07:08:25.741Z,95981.8
2018-06-24T07:09:28.181Z,95981.2
2018-06-24T07:10:30.409Z,95978.6
2018-06-24T07:11:32.913Z,95979.3
2018-06-24T07:12:35.163Z,95980.1
2018-06-24T07:13:37.608Z,95981.4
2018-06-24T07:14:40.092Z,95976.7
2018-06-24T07:15:42.522Z,95972.4
2018-06-24T07:16:44.959Z,95974.1
2018-06-24T07:17:47.391Z,95968.2
2018-06-24T07:18:49.828Z,95971.2
2018-06-24T07:19:52.267Z,95975.1
2018-06-24T07:20:54.700Z,95975.5
2018-06-24T07:21:57.141Z,95970.8
2018-06-24T07:22:59.578Z,95973
2018-06-24T07:24:02.028Z,95975.7
2018-06-24T07:25:04.469Z,95973.2
2018-06-24T07:26:06.934Z,95976.5
2018-06-24T07:27:09.372Z,95976.5
2018-06-24T07:28:11.524Z,95977.8
2018-06-24T07:29:13.965Z,95974.4
2018-06-24T07:30:16.406Z,95975.4
2018-06-24T07:31:18.837Z,95969.6
2018-06-24T07:32:21.287Z,95973.3
2018-06-24T07:33:24.015Z,95973.7
2018-06-24T07:34:26.588Z,95970.9
2018-06-24T07:35:29.030Z,95973.8
2018-06-24T07:36:31.500Z,95969.6
2018-06-24T07:37:33.670Z,95973
2018-06-24T07:38:36.488Z,95973.3
2018-06-24T07:39:39.007Z,95975.8
2018-06-24T07:40:41.451Z,95973.3
2018-06-24T07:41:43.899Z,95973.8
2018-06-24T07:42:46.072Z,95977.5
2018-06-24T07:43:48.529Z,95973.3
2018-06-24T07:44:50.959Z,95974.6
2018-06-24T07:45:53.395Z,95976.7
2018-06-24T07:46:55.546Z,95974.5
2018-06-24T07:47:57.988Z,95974.4
2018-06-24T07:49:00.429Z,95973.5
2018-06-24T07:50:02.877Z,95975.5
2018-06-24T07:51:05.329Z,95975
2018-06-24T07:52:07.873Z,95973.3
2018-06-24T07:53:10.311Z,95973
2018-06-24T07:54:12.765Z,95966.3
2018-06-24T07:55:15.206Z,95968.9
2018-06-24T07:56:17.369Z,95971.4
2018-06-24T07:57:19.911Z,95966.3
2018-06-24T07:58:22.358Z,95967.1
2018-06-24T07:59:24.796Z,95968.6
2018-06-24T08:00:27.261Z,95966.6
2018-06-24T08:01:29.712Z,95964.8
2018-06-24T08:02:32.151Z,95961.7
2018-06-24T08:03:34.319Z,95964.3
2018-06-24T08:04:36.781Z,95963.5
2018-06-24T08:05:39.219Z,95961.3
2018-06-24T08:06:41.665Z,95965.6
2018-06-24T08:07:43.851Z,95961.2
2018-06-24T08:08:46.293Z,95963.5
2018-06-24T08:09:48.435Z,95965.5
2018-06-24T08:10:50.877Z,95963.7
2018-06-24T08:11:53.028Z,95962.8
2018-06-24T08:12:55.186Z,95967.5
2018-06-24T08:13:57.629Z,95965.3
2018-06-24T08:15:00.076Z,95966.1
2018-06-24T08:16:02.506Z,95961.8
2018-06-24T08:17:04.949Z,95959.6
2018-06-24T08:18:07.392Z,95959.8
2018-06-24T08:19:09.829Z,95961
2018-06-24T08:20:12.267Z,95963
2018-06-24T08:21:14.406Z,95958.2
2018-06-24T08:22:16.838Z,95959.8
2018-06-24T08:23:19.266Z,95954.3
2018-06-24T08:24:21.701Z,95954.5
2018-06-24T08:25:24.143Z,95955.1
2018-06-24T08:26:26.584Z,95958.1
2018-06-24T08:27:29.022Z,95954
2018-06-24T08:28:31.194Z,95952.5
2018-06-24T08:29:33.630Z,95949.2
2018-06-24T08:30:36.071Z,95953.3
2018-06-24T08:31:38.831Z,95953.5
2018-06-24T08:32:41.410Z,95953.9
2018-06-24T08:33:43.873Z,95950.8
2018-06-24T08:34:46.388Z,95955.5
2018-06-24T08:35:48.822Z,95952.4
2018-06-24T08:36:51.274Z,95949.2
2018-06-24T08:37:53.431Z,95951
2018-06-24T08:38:55.649Z,95948.2
2018-06-24T08:39:57.861Z,95946.1
2018-06-24T08:41:00.299Z,95950.2
2018-06-24T08:42:02.794Z,95950.1
2018-06-24T08:43:05.220Z,95948.1
2018-06-24T08:44:07.649Z,95949
2018-06-24T08:45:10.085Z,95952.6
2018-06-24T08:46:12.515Z,95950.9
2018-06-24T08:47:14.715Z,95951.8
2018-06-24T08:48:17.170Z,95951.4
2018-06-24T08:49:19.600Z,95951.6
2018-06-24T08:50:22.027Z,95950.4
2018-06-24T08:51:24.467Z,95953.3
2018-06-24T08:52:26.908Z,95950.5
2018-06-24T08:53:29.070Z,95946.4
2018-06-24T08:54:31.509Z,95948.2
2018-06-24T08:55:33.955Z,95950.4
2018-06-24T08:56:36.391Z,95950.3
2018-06-24T08:57:38.297Z,95947.9
2018-06-24T08:58:40.750Z,95950
2018-06-24T08:59:43.195Z,95948.5
2018-06-24T09:00:45.910Z,95948
2018-06-24T09:01:48.345Z,95946.8
2018-06-24T09:02:50.789Z,95948
2018-06-24T09:03:53.235Z,95948.4
2018-06-24T09:04:55.393Z,95945.5
2018-06-24T09:05:57.581Z,95948.8
2018-06-24T09:07:00.021Z,95946.6
2018-06-24T09:08:02.618Z,95946.5
2018-06-24T09:09:05.077Z,95939.4
2018-06-24T09:10:07.507Z,95946.4
2018-06-24T09:11:09.943Z,95942.9
2018-06-24T09:12:12.380Z,95944.2
2018-06-24T09:13:14.810Z,95947.2
2018-06-24T09:14:17.352Z,95945.5
2018-06-24T09:15:19.845Z,95949.5
2018-06-24T09:16:22.271Z,95946.9
2018-06-24T09:17:24.714Z,95944.9
2018-06-24T09:18:27.179Z,95943.7
2018-06-24T09:19:29.651Z,95946.1
2018-06-24T09:20:32.091Z,95946.8
2018-06-24T09:21:34.532Z,95942.8
2018-06-24T09:22:36.672Z,95945.9
2018-06-24T09:23:39.113Z,95947.4
2018-06-24T09:24:41.546Z,95949.6
2018-06-24T09:25:43.988Z,95946.3
2018-06-24T09:26:46.434Z,95946.8
2018-06-24T09:27:48.895Z,95947.3
2018-06-24T09:28:51.323Z,95949.3
2018-06-24T09:29:53.762Z,95948.3
2018-06-24T09:30:56.600Z,95947.4
2018-06-24T09:31:59.101Z,95950
2018-06-24T09:33:01.549Z,95948.7
2018-06-24T09:34:03.990Z,95947.1
2018-06-24T09:35:06.437Z,95946.7
2018-06-24T09:36:08.879Z,95947.3
2018-06-24T09:37:11.317Z,95946.3
2018-06-24T09:38:13.769Z,95943.8
2018-06-24T09:39:16.219Z,95942.9
2018-06-24T09:40:18.645Z,95944.4
2018-06-24T09:41:21.079Z,95948.4
2018-06-24T09:42:23.527Z,95945.4
2018-06-24T09:43:25.425Z,95943.1
2018-06-24T09:44:27.861Z,95948.7
2018-06-24T09:45:30.307Z,95949.2
2018-06-24T09:46:32.743Z,95949.5
2018-06-24T09:47:35.199Z,95949.5
2018-06-24T09:48:37.696Z,95947.3
2018-06-24T09:49:40.139Z,95944.8
2018-06-24T09:50:42.579Z,95946.3
2018-06-24T09:51:45.039Z,95943.6
2018-06-24T09:52:47.316Z,95945
2018-06-24T09:53:49.528Z,95940.1
2018-06-24T09:54:51.982Z,95938.8
2018-06-24T09:55:54.438Z,95942.8
2018-06-24T09:56:56.890Z,95940.3
2018-06-24T09:57:59.337Z,95939.4
2018-06-24T09:59:01.783Z,95933.8
2018-06-24T10:00:03.680Z,95932.8
2018-06-24T10:01:06.120Z,95932
2018-06-24T10:02:08.580Z,95930.8
2018-06-24T10:03:11.014Z,95930
2018-06-24T10:04:13.455Z,95930.5
2018-06-24T10:05:15.900Z,95929.4
2018-06-24T10:06:18.352Z,95932.6
2018-06-24T10:07:20.801Z,95928.1
2018-06-24T10:08:23.252Z,95931.8
2018-06-24T10:09:25.689Z,95926.3
2018-06-24T10:10:28.140Z,95926.1
2018-06-24T10:11:30.571Z,95924
2018-06-24T10:12:33.006Z,95920.8
2018-06-24T10:13:35.433Z,95921.8
2018-06-24T10:14:37.871Z,95920.5
2018-06-24T10:15:40.323Z,95922.5
2018-06-24T10:16:42.761Z,95919.3
2018-06-24T10:17:45.253Z,95920.4
2018-06-24T10:18:47.731Z,95920
2018-06-24T10:19:50.226Z,95921.1
2018-06-24T10:20:52.719Z,95921.1
2018-06-24T10:21:55.180Z,95914.5
2018-06-24T10:22:57.636Z,95919.9
2018-06-24T10:24:00.092Z,95916.3
2018-06-24T10:25:02.551Z,95916.6
2018-06-24T10:26:05.158Z,95912.3
2018-06-24T10:27:07.629Z,95914.4
2018-06-24T10:28:10.123Z,95916.2
2018-06-24T10:29:12.577Z,95919.2
2018-06-24T10:30:14.752Z,95914.8
2018-06-24T10:31:17.185Z,95908.3
2018-06-24T10:32:19.625Z,95912.4
2018-06-24T10:33:22.111Z,95907.2
2018-06-24T10:34:24.553Z,95910.4
2018-06-24T10:35:26.991Z,95911
2018-06-24T10:36:29.441Z,95907.1
2018-06-24T10:37:31.891Z,95908.7
2018-06-24T10:38:34.339Z,95909.8
2018-06-24T10:39:36.777Z,95907.5
2018-06-24T10:40:39.220Z,95909.1
2018-06-24T10:41:41.659Z,95910.8
2018-06-24T10:42:44.094Z,95909.2
2018-06-24T10:43:46.554Z,95907.7
2018-06-24T10:44:49.009Z,95905.8
2018-06-24T10:45:51.455Z,95903.2
2018-06-24T10:46:53.613Z,95907.5
2018-06-24T10:47:56.070Z,95904.9
2018-06-24T10:48:58.511Z,95906.4
2018-06-24T10:50:00.693Z,95904.2
2018-06-24T10:51:03.139Z,95905.9
2018-06-24T10:52:05.596Z,95904.9
2018-06-24T10:53:08.031Z,95905.3
2018-06-24T10:54:10.477Z,95899.2
2018-06-24T10:55:12.610Z,95898.8
2018-06-24T10:56:15.048Z,95902.3
2018-06-24T10:57:17.500Z,95900.8
2018-06-24T10:58:19.950Z,95900.2
2018-06-24T10:59:22.380Z,95895.6
2018-06-24T11:00:24.583Z,95900.5
2018-06-24T11:01:27.022Z,95899.9
2018-06-24T11:02:29.460Z,95895.8
2018-06-24T11:03:31.889Z,95898.2
2018-06-24T11:04:34.339Z,95901.2
2018-06-24T11:05:36.781Z,95896.9
2018-06-24T11:06:39.212Z,95901.1
2018-06-24T11:07:41.653Z,95901.1
2018-06-24T11:08:44.091Z,95898.5
2018-06-24T11:09:46.444Z,95890.2
2018-06-24T11:10:48.595Z,95893.5
2018-06-24T11:11:50.503Z,95898.7
2018-06-24T11:12:52.939Z,95891.8
2018-06-24T11:13:55.122Z,95895.8
2018-06-24T11:14:57.296Z,95891.5
2018-06-24T11:15:59.743Z,95888.2
2018-06-24T11:17:02.179Z,95883.2
2018-06-24T11:18:04.348Z,95883.1
2018-06-24T11:19:06.787Z,95881.4
2018-06-24T11:20:08.959Z,95884.1
2018-06-24T11:21:11.407Z,95891.1
2018-06-24T11:22:13.571Z,95881.5
2018-06-24T11:23:16.015Z,95882.4
2018-06-24T11:24:18.457Z,95882.8
2018-06-24T11:25:20.909Z,95877.3
2018-06-24T11:26:23.344Z,95879.6
2018-06-24T11:27:25.529Z,95873.6
2018-06-24T11:28:27.969Z,95878.2
2018-06-24T11:29:30.434Z,95877.7
2018-06-24T11:30:32.886Z,95874.4
2018-06-24T11:31:35.044Z,95877.3
2018-06-24T11:32:37.490Z,95877.1
2018-06-24T11:33:39.920Z,95875.4
2018-06-24T11:34:42.099Z,95868.5
2018-06-24T11:35:44.552Z,95871
2018-06-24T11:36:46.984Z,95870.3
2018-06-24T11:37:49.421Z,95865.6
2018-06-24T11:38:51.852Z,95867.9
2018-06-24T11:39:54.314Z,95866.2
2018-06-24T11:40:56.485Z,95865.4
2018-06-24T11:41:58.941Z,95871.5
2018-06-24T11:43:01.399Z,95866
2018-06-24T11:44:03.855Z,95868.1
2018-06-24T11:45:06.288Z,95865.9
2018-06-24T11:46:08.751Z,95863.4
2018-06-24T11:47:11.189Z,95862.7
2018-06-24T11:48:13.624Z,95859.7
2018-06-24T11:49:15.790Z,95862.8
2018-06-24T11:50:18.226Z,95860.8
2018-06-24T11:51:20.676Z,95861.2
2018-06-24T11:52:23.093Z,95861.5
2018-06-24T11:53:25.554Z,95865.8
2018-06-24T11:54:28.013Z,95858.9
2018-06-24T11:55:30.466Z,95862.8
2018-06-24T11:56:32.900Z,95855.7
2018-06-24T11:57:35.338Z,95857.9
2018-06-24T11:58:37.780Z,95854.7
2018-06-24T11:59:40.219Z,95854.9
2018-06-24T12:00:42.670Z,95851.5
2018-06-24T12:01:44.840Z,95851.8
2018-06-24T12:02:47.769Z,95851.6
2018-06-24T12:03:50.160Z,95844
2018-06-24T12:04:52.636Z,95842.1
2018-06-24T12:05:55.072Z,95841.8
2018-06-24T12:06:57.773Z,95846.5
2018-06-24T12:08:00.000Z,95847.9
2018-06-24T12:09:02.461Z,95843.9
2018-06-24T12:10:04.902Z,95837.8
2018-06-24T12:11:07.346Z,95840
2018-06-24T12:12:09.811Z,95840
2018-06-24T12:13:12.248Z,95837.9
2018-06-24T12:14:14.689Z,95836.5
2018-06-24T12:15:17.137Z,95831.4
2018-06-24T12:16:19.612Z,95836.3
2018-06-24T12:17:22.052Z,95829.6
2018-06-24T12:18:24.503Z,95831.6
2018-06-24T12:19:26.668Z,95827.5
2018-06-24T12:20:29.120Z,95831.3
2018-06-24T12:21:31.580Z,95830.6
2018-06-24T12:22:34.022Z,95831
2018-06-24T12:23:36.461Z,95829.9
2018-06-24T12:24:38.934Z,95826
2018-06-24T12:25:41.110Z,95825
2018-06-24T12:26:43.561Z,95831.4
2018-06-24T12:27:46.011Z,95823.6
2018-06-24T12:28:48.503Z,95826
2018-06-24T12:29:50.953Z,95828.2
2018-06-24T12:30:53.392Z,95830.6
2018-06-24T12:31:55.831Z,95824.8
2018-06-24T12:32:58.318Z,95824.2
2018-06-24T12:34:00.498Z,95824.1
2018-06-24T12:35:02.941Z,95825.2
2018-06-24T12:36:05.107Z,95825.5
2018-06-24T12:37:07.562Z,95825.9
2018-06-24T12:38:10.002Z,95823.2
2018-06-24T12:39:12.440Z,95824.4
2018-06-24T12:40:14.902Z,95818.2